Terminal Aerodrome Forecast
Issued by NWS

Home | Current Version | Previous Version | Text Only | Print | Product List | Glossary On
Versions: 1 2 3 4 5 6 7 8 9 10 11 12 13 14
000
FTUS45 KGJT 271141
TAFMTJ
TAF
KMTJ 271141Z 2712/2812 VRB03KT P6SM VCSH FEW040 BKN110
      TEMPO 2712/2715 -SHRA BKN035 OVC050
     FM271700 29012KT P6SM VCSH BKN060
     FM272100 28017G25KT P6SM VCSH SCT110
     FM280200 29010KT P6SM VCSH SCT150
     FM280600 15007KT P6SM BKN090=

USA.gov is the U.S. government's official web portal to all federal, state and local government web resources and services.